Time,TemperatureF,DewpointF,PressureIn,WindDirection,WindDirectionDegrees,WindSpeedMPH,WindSpeedGustMPH,Humidity,HourlyPrecipIn,Conditions,Clouds,dailyrainin,SoftwareType,DateUTC
2013-02-17 00:01:00,27.9,14.0,30.19,SSW,205,0.0,-999.0,56,-99.99,,,0.00,weatherlink.com 1.10,2013-02-17 06:01:00,
2013-02-17 00:16:00,27.7,15.0,30.19,SSW,205,0.0,-999.0,58,-99.99,,,0.00,weatherlink.com 1.10,2013-02-17 06:16:00,
2013-02-17 00:31:00,27.5,15.0,30.19,SSW,205,0.0,-999.0,59,-99.99,,,0.00,weatherlink.com 1.10,2013-02-17 06:31:00,
2013-02-17 00:46:00,26.5,15.0,30.18,SSW,205,0.0,-999.0,61,-99.99,,,0.00,weatherlink.com 1.10,2013-02-17 06:46:00,
2013-02-17 01:01:00,25.0,15.0,30.18,SSW,205,0.0,-999.0,67,-99.99,,,0.00,weatherlink.com 1.10,2013-02-17 07:01:00,
2013-02-17 01:16:00,26.0,16.0,30.18,SSW,205,0.0,-999.0,65,-99.99,,,0.00,weatherlink.com 1.10,2013-02-17 07:16:00,
2013-02-17 01:31:00,26.4,16.0,30.18,SSW,205,0.0,-999.0,66,-99.99,,,0.00,weatherlink.com 1.10,2013-02-17 07:31:00,
2013-02-17 01:46:00,26.6,17.0,30.18,SSW,207,0.0,-999.0,67,-99.99,,,0.00,weatherlink.com 1.10,2013-02-17 07:46:00,
2013-02-17 02:01:00,26.6,17.0,30.17,SW,214,0.0,-999.0,68,-99.99,,,0.00,weatherlink.com 1.10,2013-02-17 08:01:00,
2013-02-17 02:16:00,26.5,17.0,30.17,SW,219,0.0,-999.0,68,-99.99,,,0.00,weatherlink.com 1.10,2013-02-17 08:16:00,
2013-02-17 02:31:00,26.3,17.0,30.17,SW,219,0.0,-999.0,69,-99.99,,,0.00,weatherlink.com 1.10,2013-02-17 08:31:00,
2013-02-17 02:46:00,25.8,17.0,30.18,SW,219,0.0,-999.0,70,-99.99,,,0.00,weatherlink.com 1.10,2013-02-17 08:46:00,
2013-02-17 03:01:00,24.9,17.0,30.18,SW,219,0.0,-999.0,71,-99.99,,,0.00,weatherlink.com 1.10,2013-02-17 09:01:00,
2013-02-17 03:16:00,24.2,16.0,30.18,SW,219,0.0,-999.0,72,-99.99,,,0.00,weatherlink.com 1.10,2013-02-17 09:16:00,
2013-02-17 03:31:00,24.2,17.0,30.18,SW,219,0.0,-999.0,74,-99.99,,,0.00,weatherlink.com 1.10,2013-02-17 09:31:00,
2013-02-17 03:46:00,24.2,17.0,30.18,SW,219,0.0,-999.0,74,-99.99,,,0.00,weatherlink.com 1.10,2013-02-17 09:46:00,
2013-02-17 04:01:00,23.9,17.0,30.18,SW,219,0.0,-999.0,75,-99.99,,,0.00,weatherlink.com 1.10,2013-02-17 10:01:00,
2013-02-17 04:16:00,23.6,17.0,30.18,SW,219,0.0,-999.0,75,-99.99,,,0.00,weatherlink.com 1.10,2013-02-17 10:16:00,
2013-02-17 04:31:00,23.0,17.0,30.18,SW,219,0.0,-999.0,76,-99.99,,,0.00,weatherlink.com 1.10,2013-02-17 10:31:00,
2013-02-17 04:46:00,22.8,17.0,30.19,SW,219,0.0,-999.0,78,-99.99,,,0.00,weatherlink.com 1.10,2013-02-17 10:46:00,
2013-02-17 05:01:00,22.9,17.0,30.20,SW,219,0.0,-999.0,79,-99.99,,,0.00,weatherlink.com 1.10,2013-02-17 11:01:00,
2013-02-17 05:16:00,23.0,17.0,30.20,SW,219,0.0,-999.0,78,-99.99,,,0.00,weatherlink.com 1.10,2013-02-17 11:16:00,
2013-02-17 05:31:00,22.5,17.0,30.20,SW,219,0.0,-999.0,80,-99.99,,,0.00,weatherlink.com 1.10,2013-02-17 11:31:00,
2013-02-17 05:46:00,22.9,18.0,30.20,SW,219,0.0,-999.0,80,-99.99,,,0.00,weatherlink.com 1.10,2013-02-17 11:46:00,
2013-02-17 06:01:00,22.7,17.0,30.20,SW,219,0.0,-999.0,80,-99.99,,,0.00,weatherlink.com 1.10,2013-02-17 12:01:00,
2013-02-17 06:16:00,22.4,17.0,30.20,SW,219,0.0,-999.0,81,-99.99,,,0.00,weatherlink.com 1.10,2013-02-17 12:16:00,
2013-02-17 06:31:00,22.4,18.0,30.20,SW,219,0.0,-999.0,83,-99.99,,,0.00,weatherlink.com 1.10,2013-02-17 12:31:00,
2013-02-17 06:46:00,22.9,19.0,30.21,SW,219,0.0,-999.0,84,-99.99,,,0.00,weatherlink.com 1.10,2013-02-17 12:46:00,
2013-02-17 07:01:00,24.2,19.0,30.22,SW,219,0.0,-999.0,82,-99.99,,,0.00,weatherlink.com 1.10,2013-02-17 13:01:00,
2013-02-17 07:16:00,24.9,20.0,30.22,SW,219,0.0,-999.0,82,-99.99,,,0.00,weatherlink.com 1.10,2013-02-17 13:16:00,
2013-02-17 07:31:00,25.7,21.0,30.22,SSW,201,1.0,-999.0,82,-99.99,,,0.00,weatherlink.com 1.10,2013-02-17 13:31:00,
2013-02-17 07:46:00,26.6,21.0,30.23,South,173,0.0,-999.0,80,-99.99,,,0.00,weatherlink.com 1.10,2013-02-17 13:46:00,
2013-02-17 08:01:00,27.2,22.0,30.23,South,173,1.0,-999.0,80,-99.99,,,0.00,weatherlink.com 1.10,2013-02-17 14:01:00,
2013-02-17 08:16:00,27.5,22.0,30.23,SSE,165,1.0,-999.0,80,-99.99,,,0.00,weatherlink.com 1.10,2013-02-17 14:16:00,
2013-02-17 08:31:00,28.3,23.0,30.23,SSE,166,1.0,-999.0,81,-99.99,,,0.00,weatherlink.com 1.10,2013-02-17 14:31:00,
2013-02-17 08:46:00,29.1,24.0,30.24,SSE,155,1.0,-999.0,80,-99.99,,,0.00,weatherlink.com 1.10,2013-02-17 14:46:00,
2013-02-17 09:01:00,30.2,25.0,30.23,SSE,150,1.0,-999.0,81,-99.99,,,0.00,weatherlink.com 1.10,2013-02-17 15:01:00,
2013-02-17 09:16:00,31.5,26.0,30.23,SE,140,1.0,-999.0,80,-99.99,,,0.00,weatherlink.com 1.10,2013-02-17 15:16:00,
2013-02-17 09:31:00,33.0,27.0,30.23,SE,141,1.0,-999.0,80,-99.99,,,0.00,weatherlink.com 1.10,2013-02-17 15:31:00,
2013-02-17 09:46:00,34.4,28.0,30.23,SE,139,1.0,-999.0,77,-99.99,,,0.00,weatherlink.com 1.10,2013-02-17 15:46:00,
2013-02-17 10:01:00,35.2,28.0,30.23,SSE,157,2.0,-999.0,74,-99.99,,,0.00,weatherlink.com 1.10,2013-02-17 16:01:00,
2013-02-17 10:16:00,36.4,28.0,30.23,SSE,150,2.0,-999.0,71,-99.99,,,0.00,weatherlink.com 1.10,2013-02-17 16:16:00,
2013-02-17 10:31:00,37.5,27.0,30.24,SSW,206,1.0,-999.0,65,-99.99,,,0.00,weatherlink.com 1.10,2013-02-17 16:31:00,
2013-02-17 10:46:00,38.3,27.0,30.23,SSE,167,2.0,-999.0,64,-99.99,,,0.00,weatherlink.com 1.10,2013-02-17 16:46:00,
2013-02-17 11:01:00,39.2,28.0,30.23,SE,134,2.0,-999.0,64,-99.99,,,0.00,weatherlink.com 1.10,2013-02-17 17:01:00,
2013-02-17 11:16:00,40.5,29.0,30.22,ESE,112,1.0,-999.0,63,-99.99,,,0.00,weatherlink.com 1.10,2013-02-17 17:16:00,
2013-02-17 11:31:00,41.0,26.0,30.21,SSE,161,7.0,-999.0,56,-99.99,,,0.00,weatherlink.com 1.10,2013-02-17 17:31:00,
2013-02-17 11:46:00,41.3,25.0,30.21,SSE,150,5.0,-999.0,53,-99.99,,,0.00,weatherlink.com 1.10,2013-02-17 17:46:00,
2013-02-17 12:01:00,41.5,25.0,30.20,SSE,163,4.0,-999.0,53,-99.99,,,0.00,weatherlink.com 1.10,2013-02-17 18:01:00,
2013-02-17 12:16:00,41.6,26.0,30.19,SSE,168,2.0,-999.0,54,-99.99,,,0.00,weatherlink.com 1.10,2013-02-17 18:16:00,
2013-02-17 12:31:00,42.2,27.0,30.18,South,181,1.0,-999.0,55,-99.99,,,0.00,weatherlink.com 1.10,2013-02-17 18:31:00,
2013-02-17 12:46:00,42.7,26.0,30.18,South,174,4.0,-999.0,51,-99.99,,,0.00,weatherlink.com 1.10,2013-02-17 18:46:00,
2013-02-17 13:01:00,42.8,25.0,30.17,South,172,4.0,-999.0,50,-99.99,,,0.00,weatherlink.com 1.10,2013-02-17 19:01:00,
2013-02-17 13:16:00,43.6,25.0,30.16,SSE,156,3.0,-999.0,49,-99.99,,,0.00,weatherlink.com 1.10,2013-02-17 19:16:00,
2013-02-17 13:31:00,43.8,25.0,30.16,SSE,159,2.0,-999.0,48,-99.99,,,0.00,weatherlink.com 1.10,2013-02-17 19:31:00,
2013-02-17 13:46:00,43.9,25.0,30.15,SSE,161,7.0,-999.0,48,-99.99,,,0.00,weatherlink.com 1.10,2013-02-17 19:46:00,
2013-02-17 14:01:00,44.3,25.0,30.14,SSE,151,9.0,-999.0,47,-99.99,,,0.00,weatherlink.com 1.10,2013-02-17 20:01:00,
2013-02-17 14:16:00,44.7,25.0,30.14,SE,141,11.0,-999.0,47,-99.99,,,0.00,weatherlink.com 1.10,2013-02-17 20:16:00,
2013-02-17 14:31:00,45.0,26.0,30.13,SSE,148,11.0,-999.0,47,-99.99,,,0.00,weatherlink.com 1.10,2013-02-17 20:31:00,
2013-02-17 14:46:00,45.3,25.0,30.12,SE,146,5.0,-999.0,46,-99.99,,,0.00,weatherlink.com 1.10,2013-02-17 20:46:00,
2013-02-17 15:01:00,46.0,25.0,30.12,SSE,150,10.0,-999.0,44,-99.99,,,0.00,weatherlink.com 1.10,2013-02-17 21:01:00,
2013-02-17 15:16:00,46.3,26.0,30.12,SSE,167,4.0,-999.0,45,-99.99,,,0.00,weatherlink.com 1.10,2013-02-17 21:16:00,
2013-02-17 15:31:00,46.7,27.0,30.11,SE,140,13.0,-999.0,46,-99.99,,,0.00,weatherlink.com 1.10,2013-02-17 21:31:00,
2013-02-17 15:46:00,46.6,27.0,30.10,SSE,163,10.0,-999.0,46,-99.99,,,0.00,weatherlink.com 1.10,2013-02-17 21:46:00,
2013-02-17 16:01:00,46.8,26.0,30.11,SE,136,10.0,-999.0,45,-99.99,,,0.00,weatherlink.com 1.10,2013-02-17 22:01:00,
2013-02-17 16:16:00,46.8,27.0,30.10,SSE,164,4.0,-999.0,46,-99.99,,,0.00,weatherlink.com 1.10,2013-02-17 22:16:00,
2013-02-17 16:31:00,47.0,26.0,30.09,SE,143,12.0,-999.0,44,-99.99,,,0.00,weatherlink.com 1.10,2013-02-17 22:31:00,
2013-02-17 16:46:00,46.7,27.0,30.09,SSE,155,9.0,-999.0,46,-99.99,,,0.00,weatherlink.com 1.10,2013-02-17 22:46:00,
2013-02-17 17:01:00,46.4,26.0,30.10,SSE,167,5.0,-999.0,46,-99.99,,,0.00,weatherlink.com 1.10,2013-02-17 23:01:00,
2013-02-17 17:16:00,46.0,26.0,30.09,SSE,155,9.0,-999.0,46,-99.99,,,0.00,weatherlink.com 1.10,2013-02-17 23:16:00,
2013-02-17 17:31:00,45.1,26.0,30.09,SSE,155,6.0,-999.0,48,-99.99,,,0.00,weatherlink.com 1.10,2013-02-17 23:31:00,
2013-02-17 17:46:00,44.3,27.0,30.08,SE,144,4.0,-999.0,50,-99.99,,,0.00,weatherlink.com 1.10,2013-02-17 23:46:00,
2013-02-17 18:01:00,43.4,26.0,30.08,SE,141,6.0,-999.0,51,-99.99,,,0.00,weatherlink.com 1.10,2013-02-18 00:01:00,
2013-02-17 18:16:00,43.1,26.0,30.09,SE,136,6.0,-999.0,51,-99.99,,,0.00,weatherlink.com 1.10,2013-02-18 00:16:00,
2013-02-17 18:31:00,42.7,26.0,30.09,SE,140,5.0,-999.0,51,-99.99,,,0.00,weatherlink.com 1.10,2013-02-18 00:31:00,
2013-02-17 18:46:00,42.2,26.0,30.08,SE,138,6.0,-999.0,52,-99.99,,,0.00,weatherlink.com 1.10,2013-02-18 00:46:00,
2013-02-17 19:01:00,41.6,25.0,30.08,SE,137,4.0,-999.0,53,-99.99,,,0.00,weatherlink.com 1.10,2013-02-18 01:01:00,
2013-02-17 19:16:00,41.5,25.0,30.08,SE,131,7.0,-999.0,53,-99.99,,,0.00,weatherlink.com 1.10,2013-02-18 01:16:00,
2013-02-17 19:31:00,41.1,25.0,30.08,SE,134,3.0,-999.0,53,-99.99,,,0.00,weatherlink.com 1.10,2013-02-18 01:31:00,
2013-02-17 19:46:00,40.7,25.0,30.08,SE,144,4.0,-999.0,54,-99.99,,,0.00,weatherlink.com 1.10,2013-02-18 01:46:00,
2013-02-17 20:01:00,40.4,25.0,30.08,SSE,150,5.0,-999.0,54,-99.99,,,0.00,weatherlink.com 1.10,2013-02-18 02:01:00,
2013-02-17 20:16:00,40.2,25.0,30.09,SSE,151,6.0,-999.0,55,-99.99,,,0.00,weatherlink.com 1.10,2013-02-18 02:16:00,
2013-02-17 20:31:00,40.1,25.0,30.08,SSE,152,4.0,-999.0,55,-99.99,,,0.00,weatherlink.com 1.10,2013-02-18 02:31:00,
2013-02-17 20:46:00,39.9,25.0,30.08,SE,144,5.0,-999.0,55,-99.99,,,0.00,weatherlink.com 1.10,2013-02-18 02:46:00,
2013-02-17 21:01:00,39.6,25.0,30.08,SE,140,6.0,-999.0,56,-99.99,,,0.00,weatherlink.com 1.10,2013-02-18 03:01:00,
2013-02-17 21:16:00,39.7,25.0,30.08,SSE,149,5.0,-999.0,57,-99.99,,,0.00,weatherlink.com 1.10,2013-02-18 03:16:00,
2013-02-17 21:31:00,39.7,25.0,30.07,SSE,153,4.0,-999.0,57,-99.99,,,0.00,weatherlink.com 1.10,2013-02-18 03:31:00,
2013-02-17 21:46:00,39.8,26.0,30.07,SSE,151,6.0,-999.0,57,-99.99,,,0.00,weatherlink.com 1.10,2013-02-18 03:46:00,
2013-02-17 22:01:00,39.5,25.0,30.07,SSE,150,6.0,-999.0,57,-99.99,,,0.00,weatherlink.com 1.10,2013-02-18 04:01:00,
2013-02-17 22:16:00,39.3,25.0,30.07,SSE,149,6.0,-999.0,58,-99.99,,,0.00,weatherlink.com 1.10,2013-02-18 04:16:00,
2013-02-17 22:31:00,39.1,25.0,30.06,SSE,163,5.0,-999.0,58,-99.99,,,0.00,weatherlink.com 1.10,2013-02-18 04:31:00,
2013-02-17 22:46:00,38.8,25.0,30.05,SSE,161,6.0,-999.0,59,-99.99,,,0.00,weatherlink.com 1.10,2013-02-18 04:46:00,
2013-02-17 23:01:00,38.8,25.0,30.05,SSE,151,7.0,-999.0,59,-99.99,,,0.00,weatherlink.com 1.10,2013-02-18 05:01:00,
2013-02-17 23:16:00,38.7,26.0,30.05,SSE,165,7.0,-999.0,60,-99.99,,,0.00,weatherlink.com 1.10,2013-02-18 05:16:00,
2013-02-17 23:31:00,38.9,26.0,30.04,SSE,160,9.0,-999.0,60,-99.99,,,0.00,weatherlink.com 1.10,2013-02-18 05:31:00,
2013-02-17 23:46:00,39.0,26.0,30.04,SE,138,7.0,-999.0,61,-99.99,,,0.00,weatherlink.com 1.10,2013-02-18 05:46:00,